Latest Weather Observations for Fowlers Gap

IDN60801

Issued at 11:35 am EDT Tuesday 21 October 2014 (issued every 30 minutes, with the page automatically refreshed every 10 minutes)

About weather observations | Map of weather stations | Latest weather observations for NSW | Other Formats
Station Details ID: 046128 Name: FOWLERS GAP AWS Lat: -31.09 Lon: 141.70 Height: 181.0 m
Data from the previous 72 hours. | See also: Recent months at Fowlers Gap
Date/Time
EDT
Temp
°C
App
Temp
°C
Dew
Point
Rel
Hum
%
Delta-T
°C
Wind Press
QNH
hPa
Press
MSL
hPa
Rain
since 9 am
mm
Dir
 
Spd
km/h
Gust
km/h
Spd
kts
Gust
kts
21/11:30am 34.4 29.5 2.0 13 16.5 NE 17 24 9 13 1021.4 1020.8 0.0
21/11:00am 32.8 27.9 1.8 14 15.6 NNE 17 24 9 13 1021.7 1021.1 0.0
21/10:30am 31.3 27.1 1.6 15 14.8 NE 13 20 7 11 1021.8 1021.2 0.0
21/10:00am 29.4 25.1 1.0 16 13.8 ENE 13 17 7 9 1021.8 1021.2 0.0
21/09:30am 27.9 24.0 1.4 18 12.9 ENE 11 15 6 8 1021.9 1021.3 0.0
21/09:00am 26.4 22.1 0.9 19 12.1 E 13 17 7 9 1021.9 1021.3 0.0
21/08:30am 25.5 21.6 0.9 20 11.7 E 11 17 6 9 1021.7 1021.1 0.0
21/08:00am 21.2 18.9 2.5 29 8.8 SSE 4 7 2 4 1021.5 1020.9 0.0
21/07:30am 19.2 16.3 1.2 30 8.2 SSE 6 7 3 4 1021.2 1020.6 0.0
21/07:00am 18.8 15.2 0.4 29 8.2 SSE 9 11 5 6 1021.0 1020.4 0.0
21/06:30am 19.2 15.9 0.3 28 8.4 SSE 7 11 4 6 1020.5 1020.0 0.0
21/06:00am 20.0 16.7 -0.1 26 8.9 S 7 9 4 5 1020.2 1019.7 0.0
21/05:30am 22.8 19.0 -0.6 21 10.6 E 9 11 5 6 1020.0 1019.5 0.0
21/05:00am 24.7 20.6 -0.4 19 11.5 E 11 17 6 9 1019.9 1019.4 0.0
21/04:30am 24.4 19.8 -0.7 19 11.4 E 13 19 7 10 1019.9 1019.4 0.0
21/04:00am 25.7 21.2 -0.4 18 12.1 E 13 20 7 11 1019.9 1019.4 0.0
21/03:30am 24.9 21.2 -0.3 19 11.6 ESE 9 15 5 8 1020.0 1019.5 0.0
21/03:00am 23.3 20.1 -0.2 21 10.7 SSW 6 7 3 4 1020.2 1019.7 0.0
21/02:30am 21.9 19.5 -0.1 23 9.9 SSW 2 6 1 3 1020.2 1019.7 0.0
21/02:00am 21.9 18.8 -0.1 23 9.9 SW 6 7 3 4 1020.5 1020.0 0.0
21/01:30am 23.4 20.3 -0.1 21 10.8 SSW 6 7 3 4 1020.7 1020.2 0.0
21/01:00am 25.8 22.0 -1.1 17 12.3 SE 9 11 5 6 1021.0 1020.4 0.0
21/12:30am 26.5 22.4 -0.5 17 12.6 SE 11 15 6 8 1021.0 1020.4 0.0
21/12:00am 27.7 22.3 -1.3 15 13.4 SE 17 20 9 11 1021.0 1020.4 0.0
 
Date/Time
EDT
Temp
°C
App
Temp
°C
Dew
Point
Rel
Hum
%
Delta-T
°C
Wind Press
QNH
hPa
Press
MSL
hPa
Rain
since 9 am
mm
Dir
 
Spd
km/h
Gust
km/h
Spd
kts
Gust
kts
20/11:30pm 27.5 22.5 -1.4 15 13.3 SE 15 19 8 10 1021.0 1020.4 0.0
20/11:00pm 27.9 23.3 -1.1 15 13.4 SSE 13 17 7 9 1021.1 1020.5 0.0
20/10:30pm 29.0 24.0 -1.2 14 14.1 SE 15 19 8 10 1021.0 1020.4 0.0
20/10:00pm 30.0 24.6 -1.4 13 14.7 SE 17 20 9 11 1020.7 1020.2 0.0
20/09:30pm 30.6 25.1 -2.0 12 15.2 SE 17 24 9 13 1020.5 1020.0 0.0
20/09:00pm 31.3 26.1 -2.6 11 15.7 SE 15 17 8 9 1020.1 1019.6 0.0
20/08:30pm 31.6 26.4 -2.4 11 15.9 SE 15 20 8 11 1019.7 1019.2 0.0
20/08:00pm 32.1 27.4 -2.0 11 16.1 SE 13 17 7 9 1019.5 1019.0 0.0
20/07:30pm 33.3 28.1 -2.4 10 16.9 ESE 15 17 8 9 1019.2 1018.7 0.0
20/07:00pm 34.0 29.7 -1.9 10 17.2 ESE 11 17 6 9 1018.8 1018.3 0.0
20/06:30pm 34.5 30.4 -2.9 9 17.7 E 9 15 5 8 1018.8 1018.3 0.0
20/06:00pm 34.7 29.5 -2.8 9 17.8 ENE 15 22 8 12 1018.7 1018.2 0.0
20/05:30pm 34.9 30.1 -2.6 9 17.9 ENE 13 19 7 10 1018.7 1018.2 0.0
20/05:00pm 35.2 31.6 -2.4 9 18.0 N 7 15 4 8 1018.8 1018.3 0.0
20/04:30pm 35.3 31.3 -2.3 9 18.1 NNE 9 15 5 8 1019.0 1018.5 0.0
20/04:00pm 36.0 31.3 -1.8 9 18.4 NW 13 17 7 9 1019.3 1018.8 0.0
20/03:30pm 35.9 31.2 -1.9 9 18.4 NE 13 20 7 11 1019.5 1019.0 0.0
20/03:00pm 35.5 30.7 -2.2 9 18.1 NE 13 20 7 11 1019.9 1019.4 0.0
20/02:30pm 35.7 31.4 -2.0 9 18.3 NNW 11 20 6 11 1020.5 1020.0 0.0
20/02:00pm 34.7 29.9 -2.8 9 17.7 NE 13 19 7 10 1021.1 1020.5 0.0
20/01:30pm 35.0 31.3 -2.6 9 17.9 N 7 9 4 5 1021.5 1020.9 0.0
20/01:00pm 34.4 29.9 -3.0 9 17.6 NE 11 20 6 11 1021.9 1021.3 0.0
20/12:30pm 33.9 28.4 -2.0 10 17.2 E 17 22 9 12 1022.2 1021.6 0.0
20/12:00pm 33.8 28.7 -2.0 10 17.0 ENE 15 28 8 15 1022.6 1022.0 0.0
20/11:30am 33.2 27.8 -1.2 11 16.6 ENE 17 24 9 13 1022.9 1022.4 0.0
20/11:00am 32.3 27.7 -0.7 12 15.9 ENE 13 19 7 10 1023.1 1022.6 0.0
20/10:30am 30.9 27.3 0.3 14 14.9 E 9 13 5 7 1023.3 1022.8 0.0
20/10:00am 29.1 25.7 1.6 17 13.5 ENE 9 15 5 8 1023.3 1022.8 0.0
20/09:30am 26.9 23.3 0.6 18 12.5 ENE 9 13 5 7 1023.2 1022.7 0.0
20/09:00am 23.8 22.1 2.0 24 10.4 CALM 0 0 0 0 1022.8 1022.3 0.0
20/08:30am 20.6 18.8 1.0 27 9.0 CALM 0 0 0 0 1022.6 1022.0 0.0
20/08:00am 17.4 15.6 1.0 33 7.3 CALM 0 0 0 0 1022.4 1021.8 0.0
20/07:30am 14.4 12.5 0.6 39 5.9 CALM 0 0 0 0 1022.2 1021.6 0.0
20/07:00am 14.3 12.3 -0.2 37 6.1 CALM 0 0 0 0 1021.7 1021.1 0.0
20/06:30am 14.8 12.8 -0.1 36 6.3 CALM 0 0 0 0 1021.6 1021.0 0.0
20/06:00am 15.7 12.9 -0.5 33 6.9 SW 4 11 2 6 1021.3 1020.7 0.0
20/05:30am 15.6 13.7 0.6 36 6.5 CALM 0 0 0 0 1020.9 1020.3 0.0
20/05:00am 16.1 12.8 -0.2 33 7.0 WNW 7 7 4 4 1020.7 1020.2 0.0
20/04:30am 16.1 14.1 -0.2 33 7.0 CALM 0 0 0 0 1020.7 1020.2 0.0
20/04:00am 16.7 14.8 0.4 33 7.1 CALM 0 0 0 0 1020.9 1020.3 0.0
20/03:30am 17.4 14.2 -0.8 29 7.8 WSW 6 7 3 4 1020.7 1020.2 0.0
20/03:00am 17.1 15.1 -0.1 31 7.4 CALM 0 0 0 0 1020.9 1020.3 0.0
20/02:30am 17.4 15.4 0.1 31 7.6 CALM 0 0 0 0 1021.1 1020.5 0.0
20/02:00am 18.0 16.0 -0.3 29 7.9 CALM 0 0 0 0 1021.5 1020.9 0.0
20/01:30am 18.6 16.6 -0.2 28 8.2 CALM 0 0 0 0 1021.5 1020.9 0.0
20/01:00am 19.0 17.1 0.6 29 8.2 CALM 0 0 0 0 1021.6 1021.0 0.0
20/12:30am 19.5 17.4 -0.5 26 8.8 CALM 0 0 0 0 1021.8 1021.2 0.0
20/12:00am 19.8 17.7 -0.8 25 9.0 CALM 0 0 0 0 1021.9 1021.3 0.0
 
Date/Time
EDT
Temp
°C
App
Temp
°C
Dew
Point
Rel
Hum
%
Delta-T
°C
Wind Press
QNH
hPa
Press
MSL
hPa
Rain
since 9 am
mm
Dir
 
Spd
km/h
Gust
km/h
Spd
kts
Gust
kts
19/11:30pm 20.4 18.2 -1.4 23 9.5 CALM 0 0 0 0 1021.9 1021.3 0.0
19/11:00pm 21.0 18.9 -0.9 23 9.6 CALM 0 0 0 0 1021.9 1021.3 0.0
19/10:30pm 21.2 19.0 -1.3 22 9.9 CALM 0 0 0 0 1021.8 1021.2 0.0
19/10:00pm 22.3 18.5 -1.1 21 10.4 SW 9 11 5 6 1021.7 1021.1 0.0
19/09:30pm 23.0 19.7 -1.1 20 10.8 NW 6 9 3 5 1021.5 1020.9 0.0
19/09:00pm 24.1 21.9 -1.7 18 11.5 CALM 0 0 0 0 1021.3 1020.7 0.0
19/08:30pm 26.1 23.8 -2.5 15 12.8 CALM 0 0 0 0 1021.0 1020.4 0.0
19/08:00pm 28.7 25.1 -3.5 12 14.4 NNE 6 9 3 5 1020.5 1020.0 0.0
19/07:30pm 30.7 27.0 -4.4 10 15.7 N 6 7 3 4 1020.1 1019.6 0.0
19/07:00pm 32.0 27.3 -4.8 9 16.5 N 11 15 6 8 1019.7 1019.2 0.0
19/06:30pm 32.5 28.6 -4.4 9 16.8 N 7 13 4 7 1019.7 1019.2 0.0
19/06:00pm 33.2 28.8 -5.5 8 17.3 NW 9 17 5 9 1019.5 1019.0 0.0
19/05:30pm 33.2 29.0 -3.9 9 17.1 S 9 13 5 7 1019.4 1018.9 0.0
19/05:00pm 33.7 28.6 -5.1 8 17.6 WNW 13 22 7 12 1019.3 1018.8 0.0
19/04:30pm 32.8 28.6 -4.2 9 16.9 NE 9 15 5 8 1019.5 1019.0 0.0
19/04:00pm 33.1 26.8 -5.5 8 17.3 NNW 19 26 10 14 1019.7 1019.2 0.0
19/03:30pm 32.7 28.1 -4.3 9 16.9 N 11 13 6 7 1020.1 1019.6 0.0
19/03:00pm 31.7 26.6 -5.0 9 16.4 N 13 22 7 12 1020.5 1020.0 0.0
19/02:30pm 31.9 26.2 -3.5 10 16.3 NNE 17 24 9 13 1020.9 1020.3 0.0
19/02:00pm 32.1 25.9 -4.7 9 16.5 NNE 19 28 10 15 1021.4 1020.8 0.0
19/01:30pm 30.7 24.9 -4.4 10 15.7 N 17 28 9 15 1022.0 1021.4 0.0
19/01:00pm 30.7 25.8 -3.1 11 15.4 N 13 26 7 14 1022.4 1021.8 0.0
19/12:30pm 30.3 24.8 -2.2 12 15.1 N 17 24 9 13 1022.6 1022.0 0.0
19/12:00pm 29.5 23.8 -0.8 14 14.3 NNE 19 30 10 16 1022.9 1022.4 0.0
19/11:30am 29.2 23.2 0.8 16 13.8 NNE 22 32 12 17 1023.3 1022.8 0.0
19/11:00am 28.6 22.2 1.2 17 13.3 NNE 24 37 13 20 1023.5 1023.0 0.0
19/10:30am 27.3 20.5 0.9 18 12.7 NNE 26 35 14 19 1023.6 1023.1 0.0
19/10:00am 25.9 19.8 0.5 19 11.9 NNE 22 28 12 15 1023.8 1023.3 0.0
19/09:30am 24.1 18.3 -0.2 20 11.2 NE 20 26 11 14 1023.9 1023.4 0.0
19/09:00am 22.6 17.9 -1.5 20 10.6 ENE 13 19 7 10 1023.7 1023.2 0.0
19/08:30am 21.1 16.8 -1.4 22 9.8 ENE 11 13 6 7 1023.6 1023.1 0.0
19/08:00am 19.7 15.4 -1.4 24 9.1 ENE 11 13 6 7 1023.2 1022.7 0.0
19/07:46am 18.7 14.1 -1.2 26 8.6 NE 13 17 7 9 1023.1 1022.6 0.0
19/07:30am 13.7 10.4 -1.5 35 6.2 ENE 6 9 3 5 1022.8 1022.3 0.0
19/07:00am 11.7 8.3 -2.1 38 5.4 S 6 9 3 5 1022.6 1022.0 0.0
19/06:30am 10.9 8.6 -2.1 40 5.1 CALM 0 0 0 0 1022.2 1021.6 0.0
19/06:00am 11.5 9.2 -2.3 38 5.4 CALM 0 0 0 0 1022.3 1021.7 0.0
19/05:30am 12.3 9.9 -3.1 34 6.0 CALM 0 0 0 0 1022.1 1021.5 0.0
19/05:00am 13.0 10.6 -3.3 32 6.3 CALM 0 4 0 2 1022.0 1021.4 0.0
19/04:30am 13.9 10.1 -3.4 30 6.8 SW 7 9 4 5 1021.9 1021.3 0.0
19/04:00am 14.7 11.1 -3.6 28 7.2 SSE 6 7 3 4 1021.8 1021.2 0.0
19/03:30am 17.8 13.3 -3.6 23 8.7 NE 11 13 6 7 1021.8 1021.2 0.0
19/03:00am 17.8 13.3 -3.0 24 8.5 ENE 11 13 6 7 1022.2 1021.6 0.0
19/02:30am 18.6 14.1 -2.9 23 8.9 NE 11 13 6 7 1022.3 1021.7 0.0
19/02:00am 17.6 13.1 -3.2 24 8.5 ENE 11 11 6 6 1022.4 1021.8 0.0
19/01:30am 18.7 14.3 -2.8 23 9.0 ENE 11 13 6 7 1022.7 1022.2 0.0
19/01:00am 18.8 14.4 -2.7 23 8.9 NE 11 13 6 7 1023.0 1022.5 0.0
19/12:30am 18.4 13.9 -3.1 23 8.9 NE 11 11 6 6 1023.2 1022.7 0.0
19/12:00am 19.3 14.8 -2.9 22 9.2 ENE 11 13 6 7 1023.2 1022.7 0.0
 
Date/Time
EDT
Temp
°C
App
Temp
°C
Dew
Point
Rel
Hum
%
Delta-T
°C
Wind Press
QNH
hPa
Press
MSL
hPa
Rain
since 9 am
mm
Dir
 
Spd
km/h
Gust
km/h
Spd
kts
Gust
kts
18/11:30pm 17.9 13.9 -1.9 26 8.3 ENE 9 11 5 6 1023.3 1022.8 0.0
18/11:00pm 17.7 14.1 -2.0 26 8.2 ENE 7 9 4 5 1023.2 1022.7 0.0
18/10:30pm 18.6 16.3 -2.3 24 8.8 CALM 0 0 0 0 1023.2 1022.7 0.0
18/10:00pm 19.6 16.1 -2.7 22 9.3 ENE 6 7 3 4 1023.2 1022.7 0.0
18/09:30pm 21.4 19.1 -2.5 20 10.3 CALM 0 0 0 0 1023.1 1022.6 0.0
18/09:00pm 22.6 20.1 -3.7 17 11.1 CALM 0 0 0 0 1022.6 1022.0 0.0
18/08:30pm 24.6 20.7 -4.6 14 12.4 N 7 11 4 6 1022.2 1021.6 0.0
18/08:00pm 26.4 22.1 -5.3 12 13.4 NNE 9 11 5 6 1021.9 1021.3 0.0
18/07:30pm 28.1 22.9 -6.3 10 14.6 NNE 13 17 7 9 1021.3 1020.7 0.0
18/07:00pm 29.1 24.0 -5.6 10 15.0 NE 13 19 7 10 1021.2 1020.6 0.0
18/06:30pm 29.0 23.7 -7.0 9 15.2 N 13 17 7 9 1021.0 1020.4 0.0
18/06:00pm 29.3 24.2 -5.4 10 15.1 N 13 17 7 9 1020.9 1020.3 0.0
18/05:30pm 30.0 25.7 -4.9 10 15.4 N 9 20 5 11 1020.7 1020.2 0.0
18/05:00pm 29.9 24.8 -5.0 10 15.3 ENE 13 17 7 9 1020.5 1020.0 0.0
18/04:30pm 29.1 23.7 -4.3 11 14.8 N 15 22 8 12 1020.6 1020.1 0.0
18/04:00pm 29.6 25.8 -3.9 11 15.0 N 7 20 4 11 1020.9 1020.3 0.0
18/03:30pm 28.7 23.8 -3.5 12 14.4 NNE 13 22 7 12 1021.4 1020.8 0.0
18/03:00pm 29.1 24.2 -3.2 12 14.6 NE 13 22 7 12 1022.0 1021.4 0.0
18/02:30pm 28.4 22.7 -3.7 12 14.3 NNE 17 24 9 13 1022.6 1022.0 0.0
18/02:00pm 28.4 23.6 -2.6 13 14.0 NE 13 20 7 11 1023.1 1022.6 0.0
18/01:30pm 27.9 22.0 -1.1 15 13.5 N 20 28 11 15 1023.4 1022.9 0.0
18/01:00pm 27.7 22.9 -2.2 14 13.6 N 13 28 7 15 1023.9 1023.4 0.0
18/12:30pm 27.0 21.9 -1.8 15 13.1 NNE 15 30 8 16 1024.4 1023.9 0.0
18/12:00pm 26.7 21.3 -1.2 16 12.8 NNE 17 26 9 14 1024.6 1024.1 0.0

Other Formats:

Comma delimited format used in spreadsheet applications
http://www.bom.gov.au/fwo/IDN60801/IDN60801.94686.axf

JavaScript Object Notation format (JSON) in row-major order
http://www.bom.gov.au/fwo/IDN60801/IDN60801.94686.json